createdAt,value
2017-09-06T00:02:02.799Z,96804.52
2017-09-06T00:04:28.661Z,96805.75
2017-09-06T00:06:54.407Z,96802.44
2017-09-06T00:09:20.287Z,96800.22
2017-09-06T00:11:46.035Z,96797.80
2017-09-06T00:14:11.803Z,96793.88
2017-09-06T00:16:37.562Z,96791.41
2017-09-06T00:19:04.143Z,96793.20
2017-09-06T00:21:29.927Z,96792.64
2017-09-06T00:23:55.735Z,96791.41
2017-09-06T00:26:21.516Z,96795.37
2017-09-06T00:28:47.299Z,96798.55
2017-09-06T00:31:13.050Z,96790.22
2017-09-06T00:33:38.851Z,96795.79
2017-09-06T00:36:04.603Z,96795.23
2017-09-06T00:38:30.375Z,96790.93
2017-09-06T00:40:56.168Z,96794.13
2017-09-06T00:43:21.936Z,96803.98
2017-09-06T00:45:47.683Z,96797.78
2017-09-06T00:48:13.495Z,96794.32
2017-09-06T00:50:39.281Z,96784.88
2017-09-06T00:53:05.072Z,96783.14
2017-09-06T00:55:30.909Z,96784.20
2017-09-06T00:57:56.720Z,96776.28
2017-09-06T01:00:22.519Z,96777.46
2017-09-06T01:02:48.287Z,96776.84
2017-09-06T01:05:14.067Z,96770.11
2017-09-06T01:07:39.856Z,96768.71
2017-09-06T01:10:05.615Z,96760.94
2017-09-06T01:12:31.403Z,96763.45
2017-09-06T01:14:57.203Z,96770.16
2017-09-06T01:17:22.974Z,96766.20
2017-09-06T01:19:49.339Z,96755.06
2017-09-06T01:22:15.112Z,96753.79
2017-09-06T01:24:40.912Z,96750.59
2017-09-06T01:27:06.710Z,96746.43
2017-09-06T01:29:32.487Z,96742.31
2017-09-06T01:31:58.272Z,96744.30
2017-09-06T01:34:24.058Z,96745.03
2017-09-06T01:36:49.815Z,96742.80
2017-09-06T01:39:15.589Z,96741.53
2017-09-06T01:41:41.447Z,96744.58
2017-09-06T01:44:07.214Z,96750.83
2017-09-06T01:46:33.007Z,96753.87
2017-09-06T01:48:58.767Z,96756.91
2017-09-06T01:51:24.668Z,96761.97
2017-09-06T01:53:50.447Z,96763.99
2017-09-06T01:56:16.191Z,96757.75
2017-09-06T01:58:41.949Z,96756.20
2017-09-06T02:01:07.727Z,96750.25
2017-09-06T02:03:33.539Z,96746.41
2017-09-06T02:05:59.300Z,96742.98
2017-09-06T02:08:25.059Z,96743.55
2017-09-06T02:10:50.864Z,96744.44
2017-09-06T02:13:16.619Z,96744.51
2017-09-06T02:15:42.387Z,96731.84
2017-09-06T02:18:08.217Z,96734.19
2017-09-06T02:20:33.972Z,96732.73
2017-09-06T02:22:59.736Z,96740.86
2017-09-06T02:25:25.508Z,96731.25
2017-09-06T02:27:51.259Z,96722.53
2017-09-06T02:30:17.155Z,96726.79
2017-09-06T02:32:42.924Z,96724.70
2017-09-06T02:35:08.698Z,96721.17
2017-09-06T02:37:34.483Z,96722.33
2017-09-06T02:40:00.253Z,96719.91
2017-09-06T02:42:26.035Z,96711.86
2017-09-06T02:44:51.819Z,96716.78
2017-09-06T02:47:17.642Z,96720.31
2017-09-06T02:49:43.413Z,96710.96
2017-09-06T02:52:09.188Z,96712.82
2017-09-06T02:54:34.987Z,96709.64
2017-09-06T02:57:00.725Z,96711.45
2017-09-06T02:59:26.505Z,96703.47
2017-09-06T03:01:52.251Z,96704.36
2017-09-06T03:04:18.023Z,96697.94
2017-09-06T03:06:43.828Z,96703.47
2017-09-06T03:09:09.581Z,96704.03
2017-09-06T03:11:35.350Z,96708.74
2017-09-06T03:14:01.151Z,96701.61
2017-09-06T03:16:26.912Z,96691.74
2017-09-06T03:18:52.670Z,96696.33
2017-09-06T03:21:18.455Z,96690.64
2017-09-06T03:23:44.202Z,96696.33
2017-09-06T03:26:09.991Z,96697.66
2017-09-06T03:28:35.746Z,96698.75
2017-09-06T03:31:01.548Z,96698.89
2017-09-06T03:33:27.308Z,96701.47
2017-09-06T03:35:53.183Z,96694.17
2017-09-06T03:38:18.936Z,96700.71
2017-09-06T03:40:44.738Z,96694.59
2017-09-06T03:43:10.496Z,96701.30
2017-09-06T03:45:36.259Z,96704.73
2017-09-06T03:48:02.051Z,96710.58
2017-09-06T03:50:27.811Z,96712.05
2017-09-06T03:52:53.606Z,96714.38
2017-09-06T03:55:19.821Z,96720.07
2017-09-06T03:57:45.640Z,96722.47
2017-09-06T04:00:11.395Z,96728.45
2017-09-06T04:02:37.159Z,96719.41
2017-09-06T04:05:02.999Z,96709.36
2017-09-06T04:07:28.750Z,96705.00
2017-09-06T04:09:54.512Z,96709.42
2017-09-06T04:12:21.220Z,96695.02
2017-09-06T04:14:47.091Z,96705.61
2017-09-06T04:17:12.883Z,96707.27
2017-09-06T04:19:38.628Z,96710.89
2017-09-06T04:22:04.413Z,96708.30
2017-09-06T04:24:30.202Z,96708.16
2017-09-06T04:26:55.965Z,96708.29
2017-09-06T04:29:21.755Z,96719.65
2017-09-06T04:31:47.551Z,96718.31
2017-09-06T04:34:13.348Z,96718.78
2017-09-06T04:36:39.107Z,96715.59
2017-09-06T04:39:04.864Z,96714.06
2017-09-06T04:41:30.678Z,96718.66
2017-09-06T04:43:56.510Z,96727.20
2017-09-06T04:46:22.264Z,96721.91
2017-09-06T04:48:48.115Z,96728.22
2017-09-06T04:51:13.911Z,96730.83
2017-09-06T04:53:39.670Z,96733.48
2017-09-06T04:56:05.444Z,96730.48
2017-09-06T04:58:31.219Z,96731.13
2017-09-06T05:00:56.967Z,96735.36
2017-09-06T05:03:22.751Z,96732.48
2017-09-06T05:05:48.499Z,96740.72
2017-09-06T05:08:14.344Z,96734.25
2017-09-06T05:10:40.142Z,96734.52
2017-09-06T05:13:06.017Z,96739.98
2017-09-06T05:15:31.811Z,96738.62
2017-09-06T05:17:57.615Z,96737.52
2017-09-06T05:20:23.403Z,96736.41
2017-09-06T05:22:49.151Z,96736.92
2017-09-06T05:25:14.918Z,96739.95
2017-09-06T05:27:40.747Z,96737.88
2017-09-06T05:30:06.501Z,96739.31
2017-09-06T05:32:32.259Z,96739.66
2017-09-06T05:34:58.604Z,96741.25
2017-09-06T05:37:24.385Z,96746.17
2017-09-06T05:39:50.145Z,96740.73
2017-09-06T05:42:16.739Z,96745.55
2017-09-06T05:44:42.547Z,96746.98
2017-09-06T05:47:08.388Z,96750.31
2017-09-06T05:49:34.137Z,96757.71
2017-09-06T05:51:59.895Z,96761.02
2017-09-06T05:54:25.764Z,96763.27
2017-09-06T05:56:51.524Z,96763.51
2017-09-06T05:59:17.362Z,96762.55
2017-09-06T06:01:43.168Z,96763.28
2017-09-06T06:04:08.919Z,96770.37
2017-09-06T06:06:34.759Z,96765.37
2017-09-06T06:09:00.576Z,96768.08
2017-09-06T06:11:26.351Z,96760.05
2017-09-06T06:13:52.247Z,96757.08
2017-09-06T06:16:18.027Z,96752.70
2017-09-06T06:18:43.863Z,96762.01
2017-09-06T06:21:09.649Z,96758.59
2017-09-06T06:23:35.400Z,96761.72
2017-09-06T06:26:01.299Z,96762.12
2017-09-06T06:28:27.067Z,96759.30
2017-09-06T06:30:52.835Z,96770.89
2017-09-06T06:33:18.627Z,96770.81
2017-09-06T06:35:44.460Z,96763.23
2017-09-06T06:38:10.263Z,96767.25
2017-09-06T06:40:36.092Z,96760.86
2017-09-06T06:43:01.861Z,96754.37
2017-09-06T06:45:27.612Z,96759.25
2017-09-06T06:47:53.379Z,96761.56
2017-09-06T06:50:19.173Z,96759.44
2017-09-06T06:52:44.946Z,96755.58
2017-09-06T06:55:11.920Z,96760.78
2017-09-06T06:57:37.779Z,96758.27
2017-09-06T07:00:03.650Z,96758.48
2017-09-06T07:02:29.416Z,96758.94
2017-09-06T07:04:55.421Z,96767.24
2017-09-06T07:07:22.051Z,96752.86
2017-09-06T07:09:47.827Z,96756.84
2017-09-06T07:12:13.584Z,96760.02
2017-09-06T07:14:39.359Z,96754.41
2017-09-06T07:17:05.142Z,96761.81
2017-09-06T07:19:30.897Z,96755.75
2017-09-06T07:21:56.736Z,96753.61
2017-09-06T07:24:22.573Z,96756.41
2017-09-06T07:26:48.423Z,96754.84
2017-09-06T07:29:14.196Z,96762.54
2017-09-06T07:31:39.981Z,96754.73
2017-09-06T07:34:05.760Z,96762.44
2017-09-06T07:36:31.520Z,96763.08
2017-09-06T07:38:57.316Z,96758.39
2017-09-06T07:41:23.066Z,96755.94
2017-09-06T07:43:48.880Z,96755.58
2017-09-06T07:46:14.974Z,96756.97
2017-09-06T07:48:40.787Z,96759.87
2017-09-06T07:51:06.596Z,96757.47
2017-09-06T07:53:32.335Z,96758.09
2017-09-06T07:55:58.146Z,96745.23
2017-09-06T07:58:23.899Z,96760.34
2017-09-06T08:00:49.643Z,96767.83
2017-09-06T08:03:15.459Z,96750.02
2017-09-06T08:05:41.217Z,96755.88
2017-09-06T08:08:09.036Z,96756.53
2017-09-06T08:10:34.822Z,96754.42
2017-09-06T08:13:00.575Z,96760.42
2017-09-06T08:15:27.218Z,96759.71
2017-09-06T08:17:53.072Z,96755.09
2017-09-06T08:20:18.932Z,96756.62
2017-09-06T08:22:44.719Z,96757.81
2017-09-06T08:25:10.611Z,96763.84
2017-09-06T08:27:36.384Z,96764.56
2017-09-06T08:30:02.231Z,96768.36
2017-09-06T08:32:28.017Z,96764.77
2017-09-06T08:34:53.807Z,96761.95
2017-09-06T08:37:19.552Z,96757.58
2017-09-06T08:39:45.331Z,96768.34
2017-09-06T08:42:11.127Z,96765.92
2017-09-06T08:44:36.916Z,96754.82
2017-09-06T08:47:02.659Z,96758.98
2017-09-06T08:49:28.548Z,96757.50
2017-09-06T08:51:54.327Z,96765.63
2017-09-06T08:54:20.147Z,96764.47
2017-09-06T08:56:46.040Z,96758.59
2017-09-06T08:59:11.816Z,96762.59
2017-09-06T09:01:37.579Z,96757.27
2017-09-06T09:04:03.372Z,96764.33
2017-09-06T09:06:29.136Z,96760.81
2017-09-06T09:08:54.996Z,96757.74
2017-09-06T09:11:20.787Z,96749.91
2017-09-06T09:13:46.648Z,96740.50
2017-09-06T09:16:12.448Z,96738.28
2017-09-06T09:18:38.197Z,96734.88
2017-09-06T09:21:03.987Z,96742.88
2017-09-06T09:23:29.748Z,96738.58
2017-09-06T09:25:55.579Z,96742.81
2017-09-06T09:28:21.380Z,96741.73
2017-09-06T09:30:47.127Z,96734.28
2017-09-06T09:33:12.866Z,96734.04
2017-09-06T09:35:38.695Z,96739.06
2017-09-06T09:38:04.455Z,96733.56
2017-09-06T09:40:30.343Z,96740.73
2017-09-06T09:42:56.091Z,96731.16
2017-09-06T09:45:21.903Z,96724.02
2017-09-06T09:47:47.678Z,96723.87
2017-09-06T09:50:13.440Z,96729.44
2017-09-06T09:52:39.227Z,96723.02
2017-09-06T09:55:05.128Z,96725.48
2017-09-06T09:57:30.878Z,96734.52
2017-09-06T09:59:56.647Z,96723.90
2017-09-06T10:02:22.491Z,96727.05
2017-09-06T10:04:48.265Z,96724.32
2017-09-06T10:07:14.083Z,96723.80
2017-09-06T10:09:39.924Z,96723.44
2017-09-06T10:12:05.675Z,96736.48
2017-09-06T10:14:31.513Z,96735.48
2017-09-06T10:16:57.297Z,96734.16
2017-09-06T10:19:23.235Z,96729.47
2017-09-06T10:21:48.991Z,96736.44
2017-09-06T10:24:14.764Z,96735.55
2017-09-06T10:26:40.540Z,96741.13
2017-09-06T10:29:06.295Z,96743.63
2017-09-06T10:31:32.084Z,96740.44
2017-09-06T10:33:57.883Z,96742.05
2017-09-06T10:36:23.651Z,96742.11
2017-09-06T10:38:49.415Z,96737.44
2017-09-06T10:41:15.194Z,96732.27
2017-09-06T10:43:40.988Z,96733.13
2017-09-06T10:46:06.738Z,96731.45
2017-09-06T10:48:32.615Z,96725.06
2017-09-06T10:50:58.375Z,96721.82
2017-09-06T10:53:24.175Z,96726.00
2017-09-06T10:55:49.979Z,96729.72
2017-09-06T10:58:15.731Z,96746.27
2017-09-06T11:00:41.509Z,96759.89
2017-09-06T11:03:07.263Z,96768.11
2017-09-06T11:05:33.108Z,96760.56
2017-09-06T11:07:58.864Z,96766.27
2017-09-06T11:10:24.620Z,96751.08
2017-09-06T11:12:50.491Z,96758.69
2017-09-06T11:15:16.264Z,96753.09
2017-09-06T11:17:42.062Z,96750.23
2017-09-06T11:20:07.926Z,96749.56
2017-09-06T11:22:33.701Z,96753.37
2017-09-06T11:24:59.483Z,96759.48
2017-09-06T11:27:25.243Z,96750.69
2017-09-06T11:29:51.072Z,96760.93
2017-09-06T11:32:16.833Z,96759.88
2017-09-06T11:34:42.595Z,96765.84
2017-09-06T11:37:08.487Z,96769.13
2017-09-06T11:39:34.323Z,96761.27
2017-09-06T11:42:00.084Z,96778.89
2017-09-06T11:44:25.864Z,96779.11
2017-09-06T11:46:51.644Z,96783.84
2017-09-06T11:49:17.404Z,96783.25
2017-09-06T11:51:43.242Z,96777.03
2017-09-06T11:54:09.015Z,96771.75
2017-09-06T11:56:34.787Z,96773.37
2017-09-06T11:59:00.564Z,96770.93
2017-09-06T12:01:26.326Z,96767.38
2017-09-06T12:03:52.111Z,96766.30
2017-09-06T12:06:17.859Z,96759.27
2017-09-06T12:08:43.645Z,96770.69
2017-09-06T12:11:09.408Z,96769.72
2017-09-06T12:13:35.217Z,96763.25
2017-09-06T12:16:00.967Z,96769.14
2017-09-06T12:18:26.759Z,96762.89
2017-09-06T12:20:52.534Z,96764.89
2017-09-06T12:23:18.305Z,96759.97
2017-09-06T12:25:44.081Z,96760.02
2017-09-06T12:28:09.852Z,96754.22
2017-09-06T12:30:35.600Z,96769.37
2017-09-06T12:33:01.379Z,96761.80
2017-09-06T12:35:27.162Z,96768.45
2017-09-06T12:37:52.923Z,96756.75
2017-09-06T12:40:18.675Z,96766.50
2017-09-06T12:42:44.455Z,96762.17
2017-09-06T12:45:10.235Z,96770.23
2017-09-06T12:47:36.016Z,96767.81
2017-09-06T12:50:01.821Z,96776.05
2017-09-06T12:52:27.800Z,96772.77
2017-09-06T12:54:53.638Z,96774.80
2017-09-06T12:57:19.422Z,96775.81
2017-09-06T12:59:45.221Z,96780.41
2017-09-06T13:02:11.047Z,96773.89
2017-09-06T13:04:36.899Z,96774.28
2017-09-06T13:07:02.647Z,96778.49
2017-09-06T13:09:28.432Z,96776.98
2017-09-06T13:11:54.192Z,96768.28
2017-09-06T13:14:19.947Z,96765.28
2017-09-06T13:16:45.760Z,96756.49
2017-09-06T13:19:11.623Z,96766.11
2017-09-06T13:21:37.376Z,96769.68
2017-09-06T13:24:03.184Z,96767.02
2017-09-06T13:26:29.002Z,96776.61
2017-09-06T13:28:54.743Z,96768.02
2017-09-06T13:31:20.531Z,96769.97
2017-09-06T13:33:46.299Z,96775.33
2017-09-06T13:36:12.056Z,96768.38
2017-09-06T13:38:37.838Z,96764.33
2017-09-06T13:41:03.589Z,96766.20
2017-09-06T13:43:29.565Z,96771.02
2017-09-06T13:45:55.320Z,96768.98
2017-09-06T13:48:21.076Z,96763.58
2017-09-06T13:50:46.980Z,96757.49
2017-09-06T13:53:12.730Z,96763.19
2017-09-06T13:55:38.472Z,96766.52
2017-09-06T13:58:04.247Z,96756.99
2017-09-06T14:00:30.000Z,96751.14
2017-09-06T14:02:55.793Z,96758.48
2017-09-06T14:05:21.548Z,96753.63
2017-09-06T14:07:47.451Z,96750.54
2017-09-06T14:10:13.203Z,96748.28
2017-09-06T14:12:40.200Z,96728.42
2017-09-06T14:15:06.065Z,96754.59
2017-09-06T14:17:31.900Z,96758.05
2017-09-06T14:19:57.643Z,96755.56
2017-09-06T14:22:23.427Z,96753.17
2017-09-06T14:24:49.223Z,96763.52
2017-09-06T14:27:15.036Z,96760.14
2017-09-06T14:29:40.939Z,96749.61
2017-09-06T14:32:06.695Z,96762.50
2017-09-06T14:34:33.534Z,96761.18
2017-09-06T14:36:59.337Z,96759.44
2017-09-06T14:39:25.085Z,96766.47
2017-09-06T14:41:50.872Z,96775.80
2017-09-06T14:44:16.632Z,96771.98
2017-09-06T14:46:42.471Z,96768.38
2017-09-06T14:49:08.210Z,96770.91
2017-09-06T14:51:33.987Z,96772.81
2017-09-06T14:53:59.784Z,96770.11
2017-09-06T14:56:25.686Z,96773.14
2017-09-06T14:58:51.443Z,96777.59
2017-09-06T15:01:17.199Z,96766.84
2017-09-06T15:03:42.980Z,96772.45
2017-09-06T15:06:08.751Z,96780.55
2017-09-06T15:08:34.539Z,96779.31
2017-09-06T15:11:00.291Z,96789.30
2017-09-06T15:13:26.114Z,96781.34
2017-09-06T15:15:51.880Z,96772.05
2017-09-06T15:18:17.631Z,96783.42
2017-09-06T15:20:43.396Z,96778.63
2017-09-06T15:23:09.291Z,96781.27
2017-09-06T15:25:35.044Z,96772.22
2017-09-06T15:28:00.923Z,96781.97
2017-09-06T15:30:26.907Z,96774.56
2017-09-06T15:32:52.724Z,96785.14
2017-09-06T15:35:18.576Z,96776.72
2017-09-06T15:37:44.343Z,96787.13
2017-09-06T15:40:10.135Z,96781.61
2017-09-06T15:42:35.898Z,96775.69
2017-09-06T15:45:01.879Z,96772.06
2017-09-06T15:47:27.639Z,96780.95
2017-09-06T15:49:53.604Z,96782.33
2017-09-06T15:52:19.482Z,96776.81
2017-09-06T15:54:45.382Z,96780.61
2017-09-06T15:57:11.184Z,96781.15
2017-09-06T15:59:36.949Z,96775.54
2017-09-06T16:02:02.715Z,96779.47
2017-09-06T16:04:28.568Z,96773.75
2017-09-06T16:06:54.345Z,96783.78
2017-09-06T16:09:20.114Z,96785.50
2017-09-06T16:11:45.899Z,96789.02
2017-09-06T16:14:11.808Z,96794.19
2017-09-06T16:16:37.563Z,96791.41
2017-09-06T16:19:03.319Z,96794.64
2017-09-06T16:21:29.232Z,96800.34
2017-09-06T16:23:55.007Z,96806.95
2017-09-06T16:26:20.759Z,96810.16
2017-09-06T16:28:46.546Z,96816.73
2017-09-06T16:31:12.303Z,96812.34
2017-09-06T16:33:38.051Z,96810.34
2017-09-06T16:36:03.895Z,96815.49
2017-09-06T16:38:29.691Z,96810.98
2017-09-06T16:40:55.519Z,96809.05
2017-09-06T16:43:21.286Z,96815.06
2017-09-06T16:45:47.039Z,96827.16
2017-09-06T16:48:12.848Z,96819.37
2017-09-06T16:50:38.605Z,96832.73
2017-09-06T16:53:04.375Z,96827.50
2017-09-06T16:55:31.322Z,96830.55
2017-09-06T16:57:57.085Z,96830.37
2017-09-06T17:00:22.871Z,96826.64
2017-09-06T17:02:49.539Z,96827.41
2017-09-06T17:05:15.356Z,96834.67
2017-09-06T17:07:41.105Z,96834.41
2017-09-06T17:10:06.887Z,96831.34
2017-09-06T17:12:32.663Z,96830.56
2017-09-06T17:14:58.463Z,96828.36
2017-09-06T17:17:24.229Z,96833.47
2017-09-06T17:19:49.983Z,96830.28
2017-09-06T17:22:15.807Z,96838.57
2017-09-06T17:24:41.663Z,96833.77
2017-09-06T17:27:07.415Z,96838.37
2017-09-06T17:29:33.291Z,96838.70
2017-09-06T17:31:59.046Z,96838.30
2017-09-06T17:34:24.936Z,96834.23
2017-09-06T17:36:50.697Z,96834.20
2017-09-06T17:39:16.494Z,96835.44
2017-09-06T17:41:42.281Z,96839.00
2017-09-06T17:44:08.124Z,96833.59
2017-09-06T17:46:33.911Z,96840.16
2017-09-06T17:48:59.664Z,96836.27
2017-09-06T17:51:25.428Z,96832.14
2017-09-06T17:53:51.227Z,96837.37
2017-09-06T17:56:16.976Z,96837.57
2017-09-06T17:58:42.756Z,96840.88
2017-09-06T18:01:08.551Z,96845.48
2017-09-06T18:03:34.295Z,96842.04
2017-09-06T18:06:00.092Z,96845.12
2017-09-06T18:08:25.832Z,96845.54
2017-09-06T18:10:51.673Z,96845.23
2017-09-06T18:13:17.466Z,96850.89
2017-09-06T18:15:43.212Z,96847.20
2017-09-06T18:18:09.007Z,96839.86
2017-09-06T18:20:34.768Z,96842.86
2017-09-06T18:23:00.514Z,96842.25
2017-09-06T18:25:26.351Z,96844.45
2017-09-06T18:27:52.105Z,96846.03
2017-09-06T18:30:17.892Z,96850.80
2017-09-06T18:32:43.748Z,96849.88
2017-09-06T18:35:09.579Z,96855.92
2017-09-06T18:37:35.374Z,96863.46
2017-09-06T18:40:01.153Z,96868.95
2017-09-06T18:42:26.920Z,96866.63
2017-09-06T18:44:52.816Z,96863.30
2017-09-06T18:47:18.632Z,96862.87
2017-09-06T18:49:44.435Z,96863.73
2017-09-06T18:52:10.266Z,96870.06
2017-09-06T18:54:36.093Z,96872.33
2017-09-06T18:57:02.854Z,96868.06
2017-09-06T18:59:28.650Z,96871.38
2017-09-06T19:01:54.475Z,96872.98
2017-09-06T19:04:20.219Z,96874.89
2017-09-06T19:06:45.992Z,96867.33
2017-09-06T19:09:11.774Z,96875.73
2017-09-06T19:11:37.582Z,96880.45
2017-09-06T19:14:03.340Z,96878.84
2017-09-06T19:16:29.157Z,96877.77
2017-09-06T19:18:54.959Z,96878.78
2017-09-06T19:21:20.711Z,96876.68
2017-09-06T19:23:46.491Z,96881.16
2017-09-06T19:26:12.309Z,96877.28
2017-09-06T19:28:38.173Z,96880.92
2017-09-06T19:31:04.083Z,96882.91
2017-09-06T19:33:29.855Z,96887.12
2017-09-06T19:35:56.603Z,96887.38
2017-09-06T19:38:22.375Z,96890.78
2017-09-06T19:40:48.131Z,96891.50
2017-09-06T19:43:13.915Z,96896.92
2017-09-06T19:45:39.768Z,96893.41
2017-09-06T19:48:05.673Z,96891.73
2017-09-06T19:50:31.501Z,96893.89
2017-09-06T19:52:57.275Z,96894.66
2017-09-06T19:55:23.918Z,96895.08
2017-09-06T19:57:49.756Z,96891.61
2017-09-06T20:00:15.644Z,96886.84
2017-09-06T20:02:41.433Z,96889.98
2017-09-06T20:05:07.260Z,96889.28
2017-09-06T20:07:33.206Z,96885.76
2017-09-06T20:09:59.049Z,96880.17
2017-09-06T20:12:24.870Z,96884.81
2017-09-06T20:14:50.700Z,96874.08
2017-09-06T20:17:16.447Z,96878.77
2017-09-06T20:19:42.372Z,96877.45
2017-09-06T20:22:08.220Z,96872.34
2017-09-06T20:24:33.975Z,96875.27
2017-09-06T20:26:59.740Z,96876.56
2017-09-06T20:29:25.537Z,96879.30
2017-09-06T20:31:51.468Z,96882.78
2017-09-06T20:34:17.281Z,96897.61
2017-09-06T20:36:43.125Z,96902.74
2017-09-06T20:39:08.902Z,96896.81
2017-09-06T20:41:34.695Z,96894.28
2017-09-06T20:44:00.443Z,96902.97
2017-09-06T20:46:27.240Z,96898.25
2017-09-06T20:48:53.028Z,96900.41
2017-09-06T20:51:18.795Z,96892.39
2017-09-06T20:53:44.547Z,96891.89
2017-09-06T20:56:10.328Z,96891.33
2017-09-06T20:58:36.092Z,96892.91
2017-09-06T21:01:01.895Z,96888.48
2017-09-06T21:03:27.751Z,96892.14
2017-09-06T21:05:53.512Z,96889.95
2017-09-06T21:08:19.307Z,96886.19
2017-09-06T21:10:45.089Z,96890.29
2017-09-06T21:13:10.843Z,96893.87
2017-09-06T21:15:36.644Z,96896.56
2017-09-06T21:18:02.466Z,96891.19
2017-09-06T21:20:28.235Z,96889.70
2017-09-06T21:22:54.009Z,96886.59
2017-09-06T21:25:19.799Z,96887.52
2017-09-06T21:27:45.567Z,96890.98
2017-09-06T21:30:11.350Z,96884.63
2017-09-06T21:32:37.153Z,96879.70
2017-09-06T21:35:02.904Z,96884.52
2017-09-06T21:37:28.653Z,96883.48
2017-09-06T21:39:54.452Z,96892.38
2017-09-06T21:42:20.227Z,96892.81
2017-09-06T21:44:46.063Z,96895.43
2017-09-06T21:47:11.815Z,96901.16
2017-09-06T21:49:37.679Z,96906.52
2017-09-06T21:52:03.465Z,96927.66
2017-09-06T21:54:29.223Z,96932.23
2017-09-06T21:56:55.015Z,96938.50
2017-09-06T21:59:20.887Z,96940.28
2017-09-06T22:01:46.647Z,96942.55
2017-09-06T22:04:12.472Z,96935.95
2017-09-06T22:06:38.229Z,96931.83
2017-09-06T22:09:03.999Z,96927.31
2017-09-06T22:11:29.761Z,96923.94
2017-09-06T22:13:55.539Z,96930.47
2017-09-06T22:16:21.282Z,96929.53
2017-09-06T22:18:47.096Z,96925.22
2017-09-06T22:21:12.892Z,96927.27
2017-09-06T22:23:38.643Z,96922.09
2017-09-06T22:26:04.432Z,96925.50
2017-09-06T22:28:30.195Z,96933.78
2017-09-06T22:30:55.951Z,96931.86
2017-09-06T22:33:21.851Z,96928.20
2017-09-06T22:35:47.608Z,96926.72
2017-09-06T22:38:13.360Z,96927.78
2017-09-06T22:40:39.215Z,96925.95
2017-09-06T22:43:04.998Z,96931.13
2017-09-06T22:45:30.763Z,96926.92
2017-09-06T22:47:56.545Z,96925.38
2017-09-06T22:50:22.312Z,96928.66
2017-09-06T22:52:48.089Z,96931.28
2017-09-06T22:55:14.823Z,96927.52
2017-09-06T22:57:40.655Z,96933.16
2017-09-06T23:00:06.542Z,96934.41
2017-09-06T23:02:32.303Z,96941.28
2017-09-06T23:04:58.180Z,96932.47
2017-09-06T23:07:23.941Z,96931.84
2017-09-06T23:09:49.713Z,96932.00
2017-09-06T23:12:15.535Z,96929.10
2017-09-06T23:14:41.315Z,96934.52
2017-09-06T23:17:07.056Z,96925.73
2017-09-06T23:19:32.889Z,96928.22
2017-09-06T23:21:58.654Z,96928.07
2017-09-06T23:24:24.500Z,96923.91
2017-09-06T23:26:50.248Z,96923.83
2017-09-06T23:29:16.023Z,96927.27
2017-09-06T23:31:41.803Z,96928.30
2017-09-06T23:34:07.567Z,96922.88
2017-09-06T23:36:33.517Z,96916.97
2017-09-06T23:38:59.398Z,96915.50
2017-09-06T23:41:25.187Z,96914.66
2017-09-06T23:43:51.051Z,96919.15
2017-09-06T23:46:16.814Z,96914.34
2017-09-06T23:48:42.601Z,96912.83
2017-09-06T23:51:08.379Z,96915.97
2017-09-06T23:53:34.151Z,96919.36
2017-09-06T23:55:59.964Z,96908.84
2017-09-06T23:58:25.731Z,96910.52
